sensor_id;sensor_type;location;lat;lon;timestamp;P1;durP1;ratioP1;P2;durP2;ratioP2
18364;SDS011;9309;52.126;11.616;2023-06-22T00:02:01;5.78;;;4.97;;
18364;SDS011;9309;52.126;11.616;2023-06-22T00:04:28;6.53;;;4.72;;
18364;SDS011;9309;52.126;11.616;2023-06-22T00:06:55;9.85;;;5.43;;
18364;SDS011;9309;52.126;11.616;2023-06-22T00:09:22;4.63;;;4.22;;
18364;SDS011;9309;52.126;11.616;2023-06-22T00:11:50;8.30;;;5.03;;
18364;SDS011;9309;52.126;11.616;2023-06-22T00:14:17;6.85;;;4.72;;
18364;SDS011;9309;52.126;11.616;2023-06-22T00:16:44;7.75;;;4.80;;
18364;SDS011;9309;52.126;11.616;2023-06-22T00:19:13;5.65;;;4.35;;
18364;SDS011;9309;52.126;11.616;2023-06-22T00:21:40;5.78;;;5.10;;
18364;SDS011;9309;52.126;11.616;2023-06-22T00:24:08;8.95;;;5.20;;
18364;SDS011;9309;52.126;11.616;2023-06-22T00:26:35;8.02;;;5.50;;
18364;SDS011;9309;52.126;11.616;2023-06-22T00:29:03;6.68;;;5.15;;
18364;SDS011;9309;52.126;11.616;2023-06-22T00:31:30;5.93;;;4.65;;
18364;SDS011;9309;52.126;11.616;2023-06-22T00:33:57;5.95;;;4.85;;
18364;SDS011;9309;52.126;11.616;2023-06-22T00:36:25;5.28;;;4.57;;
18364;SDS011;9309;52.126;11.616;2023-06-22T00:38:52;7.32;;;5.50;;
18364;SDS011;9309;52.126;11.616;2023-06-22T00:41:18;5.97;;;5.35;;
18364;SDS011;9309;52.126;11.616;2023-06-22T00:43:45;6.10;;;5.22;;
18364;SDS011;9309;52.126;11.616;2023-06-22T00:46:13;7.72;;;5.53;;
18364;SDS011;9309;52.126;11.616;2023-06-22T00:48:42;6.47;;;4.93;;
18364;SDS011;9309;52.126;11.616;2023-06-22T00:51:09;5.82;;;5.03;;
18364;SDS011;9309;52.126;11.616;2023-06-22T00:53:37;8.27;;;4.85;;
18364;SDS011;9309;52.126;11.616;2023-06-22T00:56:06;6.50;;;4.82;;
18364;SDS011;9309;52.126;11.616;2023-06-22T00:58:35;6.80;;;5.05;;
18364;SDS011;9309;52.126;11.616;2023-06-22T01:01:02;5.88;;;4.45;;
18364;SDS011;9309;52.126;11.616;2023-06-22T01:03:30;7.80;;;5.22;;
18364;SDS011;9309;52.126;11.616;2023-06-22T01:05:59;6.90;;;5.35;;
18364;SDS011;9309;52.126;11.616;2023-06-22T01:08:36;7.88;;;5.72;;
18364;SDS011;9309;52.126;11.616;2023-06-22T01:11:12;6.95;;;5.28;;
18364;SDS011;9309;52.126;11.616;2023-06-22T01:13:45;5.57;;;4.43;;
18364;SDS011;9309;52.126;11.616;2023-06-22T01:16:19;9.77;;;4.85;;
18364;SDS011;9309;52.126;11.616;2023-06-22T01:18:52;5.70;;;5.00;;
18364;SDS011;9309;52.126;11.616;2023-06-22T01:21:22;6.57;;;5.53;;
18364;SDS011;9309;52.126;11.616;2023-06-22T01:23:56;6.68;;;4.80;;
18364;SDS011;9309;52.126;11.616;2023-06-22T01:26:37;6.00;;;5.40;;
18364;SDS011;9309;52.126;11.616;2023-06-22T01:29:10;9.48;;;6.10;;
18364;SDS011;9309;52.126;11.616;2023-06-22T01:31:38;6.95;;;5.00;;
18364;SDS011;9309;52.126;11.616;2023-06-22T01:34:07;5.22;;;4.47;;
18364;SDS011;9309;52.126;11.616;2023-06-22T01:36:35;5.93;;;4.55;;
18364;SDS011;9309;52.126;11.616;2023-06-22T01:39:03;11.15;;;4.90;;
18364;SDS011;9309;52.126;11.616;2023-06-22T01:41:33;5.38;;;4.70;;
18364;SDS011;9309;52.126;11.616;2023-06-22T01:44:02;5.70;;;4.03;;
18364;SDS011;9309;52.126;11.616;2023-06-22T01:46:32;5.93;;;4.10;;
18364;SDS011;9309;52.126;11.616;2023-06-22T01:49:00;8.65;;;4.70;;
18364;SDS011;9309;52.126;11.616;2023-06-22T01:51:28;4.47;;;4.07;;
18364;SDS011;9309;52.126;11.616;2023-06-22T01:53:58;5.72;;;4.63;;
18364;SDS011;9309;52.126;11.616;2023-06-22T01:56:24;6.35;;;4.78;;
18364;SDS011;9309;52.126;11.616;2023-06-22T01:58:55;5.78;;;4.45;;
18364;SDS011;9309;52.126;11.616;2023-06-22T02:01:41;5.40;;;4.70;;
18364;SDS011;9309;52.126;11.616;2023-06-22T02:04:12;6.30;;;4.63;;
18364;SDS011;9309;52.126;11.616;2023-06-22T02:06:45;4.93;;;4.43;;
18364;SDS011;9309;52.126;11.616;2023-06-22T02:09:16;5.63;;;4.07;;
18364;SDS011;9309;52.126;11.616;2023-06-22T02:11:46;6.25;;;4.47;;
18364;SDS011;9309;52.126;11.616;2023-06-22T02:14:13;5.50;;;4.40;;
18364;SDS011;9309;52.126;11.616;2023-06-22T02:16:43;7.20;;;4.72;;
18364;SDS011;9309;52.126;11.616;2023-06-22T02:19:10;5.65;;;4.53;;
18364;SDS011;9309;52.126;11.616;2023-06-22T02:21:36;6.63;;;4.38;;
18364;SDS011;9309;52.126;11.616;2023-06-22T02:24:04;4.95;;;4.15;;
18364;SDS011;9309;52.126;11.616;2023-06-22T02:26:30;6.28;;;4.10;;
18364;SDS011;9309;52.126;11.616;2023-06-22T02:29:01;5.68;;;4.30;;
18364;SDS011;9309;52.126;11.616;2023-06-22T02:31:27;4.70;;;4.18;;
18364;SDS011;9309;52.126;11.616;2023-06-22T02:33:57;6.93;;;4.25;;
18364;SDS011;9309;52.126;11.616;2023-06-22T02:36:24;4.20;;;3.80;;
18364;SDS011;9309;52.126;11.616;2023-06-22T02:38:52;4.78;;;3.80;;
18364;SDS011;9309;52.126;11.616;2023-06-22T02:41:21;4.72;;;4.28;;
18364;SDS011;9309;52.126;11.616;2023-06-22T02:43:48;4.93;;;4.15;;
18364;SDS011;9309;52.126;11.616;2023-06-22T02:46:18;4.43;;;4.03;;
18364;SDS011;9309;52.126;11.616;2023-06-22T02:48:45;5.32;;;4.82;;
18364;SDS011;9309;52.126;11.616;2023-06-22T02:51:14;6.35;;;4.38;;
18364;SDS011;9309;52.126;11.616;2023-06-22T02:53:41;6.20;;;4.78;;
18364;SDS011;9309;52.126;11.616;2023-06-22T02:56:11;5.72;;;4.07;;
18364;SDS011;9309;52.126;11.616;2023-06-22T02:58:38;4.38;;;3.97;;
18364;SDS011;9309;52.126;11.616;2023-06-22T03:01:08;8.38;;;4.18;;
18364;SDS011;9309;52.126;11.616;2023-06-22T03:03:38;6.97;;;4.43;;
18364;SDS011;9309;52.126;11.616;2023-06-22T03:06:05;4.55;;;4.03;;
18364;SDS011;9309;52.126;11.616;2023-06-22T03:08:33;4.43;;;4.00;;
18364;SDS011;9309;52.126;11.616;2023-06-22T03:11:00;7.88;;;4.30;;
18364;SDS011;9309;52.126;11.616;2023-06-22T03:13:27;7.55;;;4.88;;
18364;SDS011;9309;52.126;11.616;2023-06-22T03:15:54;8.10;;;4.75;;
18364;SDS011;9309;52.126;11.616;2023-06-22T03:18:21;4.32;;;3.92;;
18364;SDS011;9309;52.126;11.616;2023-06-22T03:20:48;5.63;;;4.80;;
18364;SDS011;9309;52.126;11.616;2023-06-22T03:23:14;3.92;;;3.63;;
18364;SDS011;9309;52.126;11.616;2023-06-22T03:25:43;6.03;;;4.22;;
18364;SDS011;9309;52.126;11.616;2023-06-22T03:28:10;4.80;;;3.95;;
18364;SDS011;9309;52.126;11.616;2023-06-22T03:30:37;6.35;;;4.53;;
18364;SDS011;9309;52.126;11.616;2023-06-22T03:33:04;4.47;;;4.03;;
18364;SDS011;9309;52.126;11.616;2023-06-22T03:35:33;5.45;;;4.50;;
18364;SDS011;9309;52.126;11.616;2023-06-22T03:37:59;5.93;;;4.15;;
18364;SDS011;9309;52.126;11.616;2023-06-22T03:40:26;7.80;;;4.35;;
18364;SDS011;9309;52.126;11.616;2023-06-22T03:42:54;5.07;;;4.47;;
18364;SDS011;9309;52.126;11.616;2023-06-22T03:45:21;5.22;;;4.40;;
18364;SDS011;9309;52.126;11.616;2023-06-22T03:47:48;5.30;;;4.43;;
18364;SDS011;9309;52.126;11.616;2023-06-22T03:50:15;4.93;;;4.40;;
18364;SDS011;9309;52.126;11.616;2023-06-22T03:52:42;4.47;;;4.07;;
18364;SDS011;9309;52.126;11.616;2023-06-22T03:55:09;4.65;;;4.20;;
18364;SDS011;9309;52.126;11.616;2023-06-22T03:57:36;5.43;;;4.45;;
18364;SDS011;9309;52.126;11.616;2023-06-22T04:00:05;9.38;;;3.88;;
18364;SDS011;9309;52.126;11.616;2023-06-22T04:02:38;5.53;;;4.35;;
18364;SDS011;9309;52.126;11.616;2023-06-22T04:05:05;5.57;;;4.68;;
18364;SDS011;9309;52.126;11.616;2023-06-22T04:07:32;5.40;;;4.32;;
18364;SDS011;9309;52.126;11.616;2023-06-22T04:09:59;6.53;;;4.53;;
18364;SDS011;9309;52.126;11.616;2023-06-22T04:12:26;8.50;;;4.70;;
18364;SDS011;9309;52.126;11.616;2023-06-22T04:14:52;7.78;;;4.60;;
18364;SDS011;9309;52.126;11.616;2023-06-22T04:17:20;6.40;;;4.90;;
18364;SDS011;9309;52.126;11.616;2023-06-22T04:19:49;4.70;;;4.00;;
18364;SDS011;9309;52.126;11.616;2023-06-22T04:22:16;6.13;;;5.05;;
18364;SDS011;9309;52.126;11.616;2023-06-22T04:24:43;5.45;;;4.70;;
18364;SDS011;9309;52.126;11.616;2023-06-22T04:27:10;6.07;;;4.38;;
18364;SDS011;9309;52.126;11.616;2023-06-22T04:29:37;5.68;;;4.50;;
18364;SDS011;9309;52.126;11.616;2023-06-22T04:32:13;6.22;;;4.50;;
18364;SDS011;9309;52.126;11.616;2023-06-22T04:34:42;6.18;;;4.47;;
18364;SDS011;9309;52.126;11.616;2023-06-22T04:37:09;4.53;;;4.13;;
18364;SDS011;9309;52.126;11.616;2023-06-22T04:39:40;6.25;;;4.32;;
18364;SDS011;9309;52.126;11.616;2023-06-22T04:42:08;5.82;;;4.45;;
18364;SDS011;9309;52.126;11.616;2023-06-22T04:44:35;5.00;;;4.53;;
18364;SDS011;9309;52.126;11.616;2023-06-22T04:47:02;4.55;;;4.22;;
18364;SDS011;9309;52.126;11.616;2023-06-22T04:49:31;11.85;;;5.00;;
18364;SDS011;9309;52.126;11.616;2023-06-22T04:52:01;4.97;;;4.53;;
18364;SDS011;9309;52.126;11.616;2023-06-22T04:54:29;8.13;;;4.68;;
18364;SDS011;9309;52.126;11.616;2023-06-22T04:56:57;7.10;;;4.90;;
18364;SDS011;9309;52.126;11.616;2023-06-22T04:59:24;5.00;;;4.25;;
18364;SDS011;9309;52.126;11.616;2023-06-22T05:01:53;4.82;;;4.38;;
18364;SDS011;9309;52.126;11.616;2023-06-22T05:04:21;6.13;;;4.72;;
18364;SDS011;9309;52.126;11.616;2023-06-22T05:06:48;6.00;;;4.85;;
18364;SDS011;9309;52.126;11.616;2023-06-22T05:09:16;10.65;;;3.95;;
18364;SDS011;9309;52.126;11.616;2023-06-22T05:11:44;5.18;;;4.40;;
18364;SDS011;9309;52.126;11.616;2023-06-22T05:16:54;6.82;;;5.05;;
18364;SDS011;9309;52.126;11.616;2023-06-22T05:19:23;5.45;;;4.95;;
18364;SDS011;9309;52.126;11.616;2023-06-22T05:21:58;7.93;;;5.22;;
18364;SDS011;9309;52.126;11.616;2023-06-22T05:24:27;6.28;;;4.97;;
18364;SDS011;9309;52.126;11.616;2023-06-22T05:27:36;7.13;;;5.28;;
18364;SDS011;9309;52.126;11.616;2023-06-22T05:29:54;12.20;;;4.60;;
18364;SDS011;9309;52.126;11.616;2023-06-22T05:32:21;7.25;;;5.53;;
18364;SDS011;9309;52.126;11.616;2023-06-22T05:34:47;8.02;;;5.63;;
18364;SDS011;9309;52.126;11.616;2023-06-22T05:37:14;6.05;;;5.35;;
18364;SDS011;9309;52.126;11.616;2023-06-22T05:39:42;6.30;;;5.03;;
18364;SDS011;9309;52.126;11.616;2023-06-22T05:42:08;8.07;;;5.00;;
18364;SDS011;9309;52.126;11.616;2023-06-22T05:44:35;7.97;;;4.82;;
18364;SDS011;9309;52.126;11.616;2023-06-22T05:47:02;6.40;;;4.55;;
18364;SDS011;9309;52.126;11.616;2023-06-22T05:49:29;7.05;;;5.53;;
18364;SDS011;9309;52.126;11.616;2023-06-22T05:51:57;5.75;;;5.00;;
18364;SDS011;9309;52.126;11.616;2023-06-22T05:54:25;7.68;;;5.53;;
18364;SDS011;9309;52.126;11.616;2023-06-22T05:56:54;9.05;;;5.45;;
18364;SDS011;9309;52.126;11.616;2023-06-22T05:59:21;7.43;;;4.97;;
18364;SDS011;9309;52.126;11.616;2023-06-22T06:01:48;13.05;;;6.97;;
18364;SDS011;9309;52.126;11.616;2023-06-22T06:04:16;7.25;;;5.40;;
18364;SDS011;9309;52.126;11.616;2023-06-22T06:06:42;10.90;;;5.97;;
18364;SDS011;9309;52.126;11.616;2023-06-22T06:09:09;8.90;;;5.57;;
18364;SDS011;9309;52.126;11.616;2023-06-22T06:11:36;5.45;;;4.90;;
18364;SDS011;9309;52.126;11.616;2023-06-22T06:14:04;6.63;;;6.00;;
18364;SDS011;9309;52.126;11.616;2023-06-22T06:16:32;8.23;;;6.10;;
18364;SDS011;9309;52.126;11.616;2023-06-22T06:18:59;7.93;;;5.88;;
18364;SDS011;9309;52.126;11.616;2023-06-22T06:21:25;9.25;;;5.57;;
18364;SDS011;9309;52.126;11.616;2023-06-22T06:23:52;8.02;;;6.30;;
18364;SDS011;9309;52.126;11.616;2023-06-22T06:26:19;7.22;;;6.22;;
18364;SDS011;9309;52.126;11.616;2023-06-22T06:28:51;9.20;;;5.03;;
18364;SDS011;9309;52.126;11.616;2023-06-22T06:31:19;5.55;;;5.03;;
18364;SDS011;9309;52.126;11.616;2023-06-22T06:33:46;9.18;;;6.20;;
18364;SDS011;9309;52.126;11.616;2023-06-22T06:36:13;9.18;;;5.65;;
18364;SDS011;9309;52.126;11.616;2023-06-22T06:38:40;10.18;;;6.30;;
18364;SDS011;9309;52.126;11.616;2023-06-22T06:41:07;8.57;;;6.43;;
18364;SDS011;9309;52.126;11.616;2023-06-22T06:43:33;9.05;;;5.80;;
18364;SDS011;9309;52.126;11.616;2023-06-22T06:46:00;7.05;;;5.15;;
18364;SDS011;9309;52.126;11.616;2023-06-22T06:48:29;8.50;;;6.05;;
18364;SDS011;9309;52.126;11.616;2023-06-22T06:50:56;6.72;;;5.13;;
18364;SDS011;9309;52.126;11.616;2023-06-22T06:53:22;7.90;;;5.40;;
18364;SDS011;9309;52.126;11.616;2023-06-22T06:55:49;9.63;;;6.28;;
18364;SDS011;9309;52.126;11.616;2023-06-22T06:58:16;7.38;;;4.75;;
18364;SDS011;9309;52.126;11.616;2023-06-22T07:00:42;7.45;;;4.88;;
18364;SDS011;9309;52.126;11.616;2023-06-22T07:03:09;9.18;;;6.03;;
18364;SDS011;9309;52.126;11.616;2023-06-22T07:05:37;11.98;;;6.57;;
18364;SDS011;9309;52.126;11.616;2023-06-22T07:08:04;7.55;;;5.30;;
18364;SDS011;9309;52.126;11.616;2023-06-22T07:10:31;9.85;;;5.65;;
18364;SDS011;9309;52.126;11.616;2023-06-22T07:12:57;9.43;;;6.50;;
18364;SDS011;9309;52.126;11.616;2023-06-22T07:15:24;7.90;;;5.57;;
18364;SDS011;9309;52.126;11.616;2023-06-22T07:17:51;7.05;;;5.07;;
18364;SDS011;9309;52.126;11.616;2023-06-22T07:20:17;7.47;;;5.60;;
18364;SDS011;9309;52.126;11.616;2023-06-22T07:22:46;7.47;;;5.65;;
18364;SDS011;9309;52.126;11.616;2023-06-22T07:25:13;10.55;;;6.53;;
18364;SDS011;9309;52.126;11.616;2023-06-22T07:27:42;7.03;;;5.35;;
18364;SDS011;9309;52.126;11.616;2023-06-22T07:30:11;9.60;;;6.38;;
18364;SDS011;9309;52.126;11.616;2023-06-22T07:32:38;7.55;;;5.22;;
18364;SDS011;9309;52.126;11.616;2023-06-22T07:35:05;9.38;;;5.70;;
18364;SDS011;9309;52.126;11.616;2023-06-22T07:37:33;8.02;;;5.00;;
18364;SDS011;9309;52.126;11.616;2023-06-22T07:40:01;6.70;;;5.03;;
18364;SDS011;9309;52.126;11.616;2023-06-22T07:42:31;9.60;;;5.78;;
18364;SDS011;9309;52.126;11.616;2023-06-22T07:44:58;8.90;;;6.30;;
18364;SDS011;9309;52.126;11.616;2023-06-22T07:47:25;11.10;;;6.40;;
18364;SDS011;9309;52.126;11.616;2023-06-22T07:49:53;8.38;;;6.30;;
18364;SDS011;9309;52.126;11.616;2023-06-22T07:52:22;5.97;;;5.47;;
18364;SDS011;9309;52.126;11.616;2023-06-22T07:54:49;8.50;;;6.03;;
18364;SDS011;9309;52.126;11.616;2023-06-22T07:57:17;7.05;;;5.95;;
18364;SDS011;9309;52.126;11.616;2023-06-22T07:59:44;7.82;;;5.72;;
18364;SDS011;9309;52.126;11.616;2023-06-22T08:02:11;6.53;;;5.45;;
18364;SDS011;9309;52.126;11.616;2023-06-22T08:04:38;8.80;;;6.00;;
18364;SDS011;9309;52.126;11.616;2023-06-22T08:07:06;7.65;;;5.80;;
18364;SDS011;9309;52.126;11.616;2023-06-22T08:09:32;9.27;;;6.38;;
18364;SDS011;9309;52.126;11.616;2023-06-22T08:11:59;6.78;;;5.30;;
18364;SDS011;9309;52.126;11.616;2023-06-22T08:16:55;6.60;;;5.85;;
18364;SDS011;9309;52.126;11.616;2023-06-22T08:19:22;5.63;;;5.00;;
18364;SDS011;9309;52.126;11.616;2023-06-22T08:21:49;8.50;;;5.50;;
18364;SDS011;9309;52.126;11.616;2023-06-22T08:24:15;9.43;;;6.10;;
18364;SDS011;9309;52.126;11.616;2023-06-22T08:26:42;7.35;;;5.10;;
18364;SDS011;9309;52.126;11.616;2023-06-22T08:29:09;10.52;;;5.38;;
18364;SDS011;9309;52.126;11.616;2023-06-22T08:31:37;9.40;;;5.95;;
18364;SDS011;9309;52.126;11.616;2023-06-22T08:34:03;9.50;;;5.85;;
18364;SDS011;9309;52.126;11.616;2023-06-22T08:36:30;5.93;;;4.70;;
18364;SDS011;9309;52.126;11.616;2023-06-22T08:39:02;8.60;;;5.97;;
18364;SDS011;9309;52.126;11.616;2023-06-22T08:41:29;6.28;;;4.85;;
18364;SDS011;9309;52.126;11.616;2023-06-22T08:43:56;8.63;;;6.13;;
18364;SDS011;9309;52.126;11.616;2023-06-22T08:46:23;9.45;;;5.50;;
18364;SDS011;9309;52.126;11.616;2023-06-22T08:48:56;6.53;;;5.03;;
18364;SDS011;9309;52.126;11.616;2023-06-22T08:51:23;9.90;;;5.72;;
18364;SDS011;9309;52.126;11.616;2023-06-22T08:53:50;7.60;;;5.90;;
18364;SDS011;9309;52.126;11.616;2023-06-22T08:56:16;7.97;;;5.65;;
18364;SDS011;9309;52.126;11.616;2023-06-22T08:58:43;7.68;;;6.05;;
18364;SDS011;9309;52.126;11.616;2023-06-22T09:01:10;5.10;;;4.60;;
18364;SDS011;9309;52.126;11.616;2023-06-22T09:03:37;6.22;;;5.43;;
18364;SDS011;9309;52.126;11.616;2023-06-22T09:06:05;5.45;;;5.03;;
18364;SDS011;9309;52.126;11.616;2023-06-22T09:08:34;6.47;;;5.88;;
18364;SDS011;9309;52.126;11.616;2023-06-22T09:11:00;6.00;;;5.38;;
18364;SDS011;9309;52.126;11.616;2023-06-22T09:13:27;6.55;;;5.57;;
18364;SDS011;9309;52.126;11.616;2023-06-22T09:15:56;7.10;;;5.45;;
18364;SDS011;9309;52.126;11.616;2023-06-22T09:18:23;8.85;;;5.65;;
18364;SDS011;9309;52.126;11.616;2023-06-22T09:20:49;6.60;;;5.78;;
18364;SDS011;9309;52.126;11.616;2023-06-22T09:23:17;7.40;;;5.35;;
18364;SDS011;9309;52.126;11.616;2023-06-22T09:25:44;7.38;;;6.00;;
18364;SDS011;9309;52.126;11.616;2023-06-22T09:28:12;7.90;;;5.60;;
18364;SDS011;9309;52.126;11.616;2023-06-22T09:30:39;6.32;;;5.25;;
18364;SDS011;9309;52.126;11.616;2023-06-22T09:33:06;7.35;;;5.15;;
18364;SDS011;9309;52.126;11.616;2023-06-22T09:35:32;8.25;;;6.13;;
18364;SDS011;9309;52.126;11.616;2023-06-22T09:37:59;8.27;;;5.72;;
18364;SDS011;9309;52.126;11.616;2023-06-22T09:40:27;7.97;;;5.38;;
18364;SDS011;9309;52.126;11.616;2023-06-22T09:42:54;7.32;;;5.85;;
18364;SDS011;9309;52.126;11.616;2023-06-22T09:45:20;4.93;;;4.53;;
18364;SDS011;9309;52.126;11.616;2023-06-22T09:47:47;6.88;;;5.20;;
18364;SDS011;9309;52.126;11.616;2023-06-22T09:50:14;8.98;;;5.75;;
18364;SDS011;9309;52.126;11.616;2023-06-22T09:52:41;9.98;;;6.65;;
18364;SDS011;9309;52.126;11.616;2023-06-22T09:55:09;7.88;;;5.28;;
18364;SDS011;9309;52.126;11.616;2023-06-22T09:57:37;6.20;;;5.47;;
18364;SDS011;9309;52.126;11.616;2023-06-22T10:00:04;6.90;;;6.20;;
18364;SDS011;9309;52.126;11.616;2023-06-22T10:02:35;6.88;;;6.10;;
18364;SDS011;9309;52.126;11.616;2023-06-22T10:05:02;8.10;;;5.85;;
18364;SDS011;9309;52.126;11.616;2023-06-22T10:07:29;12.05;;;6.88;;
18364;SDS011;9309;52.126;11.616;2023-06-22T10:09:56;9.15;;;6.22;;
18364;SDS011;9309;52.126;11.616;2023-06-22T10:12:22;6.78;;;6.00;;
18364;SDS011;9309;52.126;11.616;2023-06-22T10:14:50;6.35;;;5.28;;
18364;SDS011;9309;52.126;11.616;2023-06-22T10:17:17;7.45;;;5.97;;
18364;SDS011;9309;52.126;11.616;2023-06-22T10:19:44;6.63;;;5.38;;
18364;SDS011;9309;52.126;11.616;2023-06-22T10:22:10;8.98;;;6.07;;
18364;SDS011;9309;52.126;11.616;2023-06-22T10:24:37;7.45;;;5.43;;
18364;SDS011;9309;52.126;11.616;2023-06-22T10:27:09;7.20;;;6.00;;
18364;SDS011;9309;52.126;11.616;2023-06-22T10:29:36;6.78;;;5.43;;
18364;SDS011;9309;52.126;11.616;2023-06-22T10:32:04;6.97;;;5.45;;
18364;SDS011;9309;52.126;11.616;2023-06-22T10:34:32;6.38;;;5.78;;
18364;SDS011;9309;52.126;11.616;2023-06-22T10:36:58;7.20;;;5.88;;
18364;SDS011;9309;52.126;11.616;2023-06-22T10:39:25;7.03;;;6.28;;
18364;SDS011;9309;52.126;11.616;2023-06-22T10:41:52;7.63;;;6.43;;
18364;SDS011;9309;52.126;11.616;2023-06-22T10:44:18;7.35;;;5.57;;
18364;SDS011;9309;52.126;11.616;2023-06-22T10:46:45;9.50;;;5.80;;
18364;SDS011;9309;52.126;11.616;2023-06-22T10:49:13;6.28;;;5.55;;
18364;SDS011;9309;52.126;11.616;2023-06-22T10:51:40;9.30;;;5.97;;
18364;SDS011;9309;52.126;11.616;2023-06-22T10:54:06;7.63;;;5.82;;
18364;SDS011;9309;52.126;11.616;2023-06-22T10:56:33;7.45;;;5.85;;
18364;SDS011;9309;52.126;11.616;2023-06-22T10:59:00;7.53;;;5.93;;
18364;SDS011;9309;52.126;11.616;2023-06-22T11:01:26;7.38;;;5.97;;
18364;SDS011;9309;52.126;11.616;2023-06-22T11:03:53;7.55;;;6.22;;
18364;SDS011;9309;52.126;11.616;2023-06-22T11:06:21;8.10;;;6.53;;
18364;SDS011;9309;52.126;11.616;2023-06-22T11:08:59;7.38;;;6.25;;
18364;SDS011;9309;52.126;11.616;2023-06-22T11:11:34;6.55;;;5.70;;
18364;SDS011;9309;52.126;11.616;2023-06-22T11:14:01;6.32;;;5.63;;
18364;SDS011;9309;52.126;11.616;2023-06-22T11:16:28;5.78;;;5.32;;
18364;SDS011;9309;52.126;11.616;2023-06-22T11:18:54;8.02;;;6.50;;
18364;SDS011;9309;52.126;11.616;2023-06-22T11:21:22;8.38;;;5.93;;
18364;SDS011;9309;52.126;11.616;2023-06-22T11:23:49;7.75;;;6.10;;
18364;SDS011;9309;52.126;11.616;2023-06-22T11:26:15;7.97;;;6.13;;
18364;SDS011;9309;52.126;11.616;2023-06-22T11:28:42;5.85;;;5.30;;
18364;SDS011;9309;52.126;11.616;2023-06-22T11:31:09;7.95;;;6.13;;
18364;SDS011;9309;52.126;11.616;2023-06-22T11:33:35;8.57;;;5.93;;
18364;SDS011;9309;52.126;11.616;2023-06-22T11:36:02;9.20;;;6.50;;
18364;SDS011;9309;52.126;11.616;2023-06-22T11:38:30;6.18;;;5.57;;
18364;SDS011;9309;52.126;11.616;2023-06-22T11:40:58;6.32;;;5.55;;
18364;SDS011;9309;52.126;11.616;2023-06-22T11:43:25;7.22;;;6.15;;
18364;SDS011;9309;52.126;11.616;2023-06-22T11:45:52;7.70;;;6.38;;
18364;SDS011;9309;52.126;11.616;2023-06-22T11:48:21;6.70;;;6.10;;
18364;SDS011;9309;52.126;11.616;2023-06-22T11:50:47;5.50;;;5.03;;
18364;SDS011;9309;52.126;11.616;2023-06-22T11:55:43;6.53;;;5.55;;
18364;SDS011;9309;52.126;11.616;2023-06-22T11:58:10;6.53;;;5.82;;
18364;SDS011;9309;52.126;11.616;2023-06-22T12:00:37;9.82;;;6.57;;
18364;SDS011;9309;52.126;11.616;2023-06-22T12:03:03;6.18;;;5.20;;
18364;SDS011;9309;52.126;11.616;2023-06-22T12:05:30;7.45;;;5.90;;
18364;SDS011;9309;52.126;11.616;2023-06-22T12:07:57;6.75;;;6.05;;
18364;SDS011;9309;52.126;11.616;2023-06-22T12:10:24;6.60;;;5.90;;
18364;SDS011;9309;52.126;11.616;2023-06-22T12:12:54;6.97;;;5.55;;
18364;SDS011;9309;52.126;11.616;2023-06-22T12:15:22;6.18;;;5.65;;
18364;SDS011;9309;52.126;11.616;2023-06-22T12:17:49;7.65;;;5.75;;
18364;SDS011;9309;52.126;11.616;2023-06-22T12:20:16;7.65;;;5.72;;
18364;SDS011;9309;52.126;11.616;2023-06-22T12:22:42;6.85;;;6.00;;
18364;SDS011;9309;52.126;11.616;2023-06-22T12:25:09;8.45;;;6.38;;
18364;SDS011;9309;52.126;11.616;2023-06-22T12:27:36;6.10;;;5.50;;
18364;SDS011;9309;52.126;11.616;2023-06-22T12:30:05;6.00;;;5.50;;
18364;SDS011;9309;52.126;11.616;2023-06-22T12:32:32;8.75;;;6.05;;
18364;SDS011;9309;52.126;11.616;2023-06-22T12:34:59;6.60;;;5.88;;
18364;SDS011;9309;52.126;11.616;2023-06-22T12:37:25;5.75;;;5.20;;
18364;SDS011;9309;52.126;11.616;2023-06-22T12:39:53;8.30;;;6.15;;
18364;SDS011;9309;52.126;11.616;2023-06-22T12:42:20;6.45;;;5.85;;
18364;SDS011;9309;52.126;11.616;2023-06-22T12:44:46;6.93;;;5.95;;
18364;SDS011;9309;52.126;11.616;2023-06-22T12:47:14;6.68;;;5.80;;
18364;SDS011;9309;52.126;11.616;2023-06-22T12:49:41;5.80;;;5.20;;
18364;SDS011;9309;52.126;11.616;2023-06-22T12:52:11;6.68;;;5.90;;
18364;SDS011;9309;52.126;11.616;2023-06-22T12:54:37;6.43;;;5.82;;
18364;SDS011;9309;52.126;11.616;2023-06-22T12:57:04;6.88;;;6.10;;
18364;SDS011;9309;52.126;11.616;2023-06-22T12:59:31;5.95;;;5.35;;
18364;SDS011;9309;52.126;11.616;2023-06-22T13:01:58;7.63;;;5.75;;
18364;SDS011;9309;52.126;11.616;2023-06-22T13:04:26;8.80;;;6.25;;
18364;SDS011;9309;52.126;11.616;2023-06-22T13:06:52;7.55;;;6.25;;
18364;SDS011;9309;52.126;11.616;2023-06-22T13:09:19;7.80;;;6.15;;
18364;SDS011;9309;52.126;11.616;2023-06-22T13:11:46;6.97;;;5.57;;
18364;SDS011;9309;52.126;11.616;2023-06-22T13:14:12;5.85;;;5.35;;
18364;SDS011;9309;52.126;11.616;2023-06-22T13:16:41;6.38;;;5.78;;
18364;SDS011;9309;52.126;11.616;2023-06-22T13:19:07;6.55;;;5.85;;
18364;SDS011;9309;52.126;11.616;2023-06-22T13:21:35;6.00;;;5.50;;
18364;SDS011;9309;52.126;11.616;2023-06-22T13:24:02;6.78;;;5.57;;
18364;SDS011;9309;52.126;11.616;2023-06-22T13:26:31;6.38;;;5.57;;
18364;SDS011;9309;52.126;11.616;2023-06-22T13:28:58;9.68;;;6.35;;
18364;SDS011;9309;52.126;11.616;2023-06-22T13:31:25;5.97;;;5.40;;
18364;SDS011;9309;52.126;11.616;2023-06-22T13:33:51;7.45;;;5.90;;
18364;SDS011;9309;52.126;11.616;2023-06-22T13:36:18;7.20;;;6.28;;
18364;SDS011;9309;52.126;11.616;2023-06-22T13:38:47;6.35;;;5.85;;
18364;SDS011;9309;52.126;11.616;2023-06-22T13:41:14;6.55;;;5.95;;
18364;SDS011;9309;52.126;11.616;2023-06-22T13:43:41;5.70;;;5.30;;
18364;SDS011;9309;52.126;11.616;2023-06-22T13:46:07;7.20;;;6.45;;
18364;SDS011;9309;52.126;11.616;2023-06-22T13:48:34;7.60;;;6.07;;
18364;SDS011;9309;52.126;11.616;2023-06-22T13:51:01;7.05;;;5.63;;
18364;SDS011;9309;52.126;11.616;2023-06-22T13:53:28;5.53;;;5.03;;
18364;SDS011;9309;52.126;11.616;2023-06-22T13:55:56;5.78;;;5.28;;
18364;SDS011;9309;52.126;11.616;2023-06-22T13:58:23;7.40;;;5.80;;
18364;SDS011;9309;52.126;11.616;2023-06-22T14:00:49;5.55;;;5.05;;
18364;SDS011;9309;52.126;11.616;2023-06-22T14:03:16;5.80;;;5.28;;
18364;SDS011;9309;52.126;11.616;2023-06-22T14:05:43;6.82;;;6.13;;
18364;SDS011;9309;52.126;11.616;2023-06-22T14:08:09;6.40;;;5.80;;
18364;SDS011;9309;52.126;11.616;2023-06-22T14:10:36;7.95;;;5.55;;
18364;SDS011;9309;52.126;11.616;2023-06-22T14:13:04;7.60;;;5.63;;
18364;SDS011;9309;52.126;11.616;2023-06-22T14:15:31;5.60;;;5.05;;
18364;SDS011;9309;52.126;11.616;2023-06-22T14:17:58;6.88;;;5.25;;
18364;SDS011;9309;52.126;11.616;2023-06-22T14:20:25;7.03;;;5.80;;
18364;SDS011;9309;52.126;11.616;2023-06-22T14:22:52;6.75;;;5.60;;
18364;SDS011;9309;52.126;11.616;2023-06-22T14:25:18;9.18;;;6.30;;
18364;SDS011;9309;52.126;11.616;2023-06-22T14:27:45;5.55;;;5.00;;
18364;SDS011;9309;52.126;11.616;2023-06-22T14:30:13;4.68;;;4.28;;
18364;SDS011;9309;52.126;11.616;2023-06-22T14:32:40;6.03;;;5.28;;
18364;SDS011;9309;52.126;11.616;2023-06-22T14:35:09;8.27;;;6.03;;
18364;SDS011;9309;52.126;11.616;2023-06-22T14:37:36;5.93;;;5.30;;
18364;SDS011;9309;52.126;11.616;2023-06-22T14:40:03;7.00;;;5.30;;
18364;SDS011;9309;52.126;11.616;2023-06-22T14:42:32;9.00;;;6.22;;
18364;SDS011;9309;52.126;11.616;2023-06-22T14:44:58;5.78;;;5.28;;
18364;SDS011;9309;52.126;11.616;2023-06-22T14:47:26;6.07;;;5.47;;
18364;SDS011;9309;52.126;11.616;2023-06-22T14:49:53;7.25;;;5.57;;
18364;SDS011;9309;52.126;11.616;2023-06-22T14:52:20;6.55;;;5.70;;
18364;SDS011;9309;52.126;11.616;2023-06-22T14:54:47;7.43;;;5.65;;
18364;SDS011;9309;52.126;11.616;2023-06-22T14:57:16;6.78;;;5.55;;
18364;SDS011;9309;52.126;11.616;2023-06-22T14:59:45;6.47;;;5.63;;